Letham, United Kingdom
Current Conditions -  °F | °C
As of 8:20 PM on Monday 22 Dec 2014 (Local Time) from EGPN Reporting Station
Clear Clear  
Wind Chill: 36°   Ceiling: Unl
Heat Index: 45°   Visibility: 6mi
Dew Point: 39°   Wind: 22mph
Humidity: 81%   Direction: 260°W
Pressure: 29.56"   Gusts: NA
Location:  56.62°N, 2.77°W
Report Text: EGPN 222020Z 26019KT CAVOK 07/04 Q1001
Loading
Personal Weather Stations






























Interactive Weather Map New forecast layout! Learn more

10-Day Weather Forecast

Advertisements
Track Severe Weather on mobile